sensor_id;sensor_type;location;lat;lon;timestamp;temperature;humidity
23471;DHT22;11908;50.806;4.424;2022-08-04T00:01:56;23.90;99.90
23471;DHT22;11908;50.806;4.424;2022-08-04T00:04:48;23.90;99.90
23471;DHT22;11908;50.806;4.424;2022-08-04T00:07:40;23.90;99.90
23471;DHT22;11908;50.806;4.424;2022-08-04T00:10:07;23.80;99.90
23471;DHT22;11908;50.806;4.424;2022-08-04T00:12:36;23.80;99.90
23471;DHT22;11908;50.806;4.424;2022-08-04T00:15:09;23.80;99.90
23471;DHT22;11908;50.806;4.424;2022-08-04T00:17:40;23.80;99.90
23471;DHT22;11908;50.806;4.424;2022-08-04T00:20:09;23.70;99.90
23471;DHT22;11908;50.806;4.424;2022-08-04T00:22:34;23.70;99.90
23471;DHT22;11908;50.806;4.424;2022-08-04T00:25:03;23.70;99.90
23471;DHT22;11908;50.806;4.424;2022-08-04T00:27:30;23.70;99.90
23471;DHT22;11908;50.806;4.424;2022-08-04T00:29:57;23.60;99.90
23471;DHT22;11908;50.806;4.424;2022-08-04T00:32:25;23.50;99.90
23471;DHT22;11908;50.806;4.424;2022-08-04T00:34:56;23.50;99.90
23471;DHT22;11908;50.806;4.424;2022-08-04T00:37:25;23.40;99.90
23471;DHT22;11908;50.806;4.424;2022-08-04T00:39:55;23.40;99.90
23471;DHT22;11908;50.806;4.424;2022-08-04T00:42:43;23.30;99.90
23471;DHT22;11908;50.806;4.424;2022-08-04T00:51:14;23.30;99.90
23471;DHT22;11908;50.806;4.424;2022-08-04T00:56:38;23.30;99.90
23471;DHT22;11908;50.806;4.424;2022-08-04T00:59:22;23.30;99.90
23471;DHT22;11908;50.806;4.424;2022-08-04T01:02:00;23.30;99.90
23471;DHT22;11908;50.806;4.424;2022-08-04T01:04:56;23.20;99.90
23471;DHT22;11908;50.806;4.424;2022-08-04T01:11:00;23.20;99.90
23471;DHT22;11908;50.806;4.424;2022-08-04T01:16:06;23.10;99.90
23471;DHT22;11908;50.806;4.424;2022-08-04T01:24:29;23.00;99.90
23471;DHT22;11908;50.806;4.424;2022-08-04T01:29:58;23.00;99.90
23471;DHT22;11908;50.806;4.424;2022-08-04T01:32:37;22.90;99.90
23471;DHT22;11908;50.806;4.424;2022-08-04T01:40:21;22.80;99.90
23471;DHT22;11908;50.806;4.424;2022-08-04T01:42:51;22.90;99.90
23471;DHT22;11908;50.806;4.424;2022-08-04T01:45:18;22.80;99.90
23471;DHT22;11908;50.806;4.424;2022-08-04T01:47:51;22.80;99.90
23471;DHT22;11908;50.806;4.424;2022-08-04T01:50:18;22.80;99.90
23471;DHT22;11908;50.806;4.424;2022-08-04T01:52:44;22.70;99.90
23471;DHT22;11908;50.806;4.424;2022-08-04T01:55:12;22.70;99.90
23471;DHT22;11908;50.806;4.424;2022-08-04T01:57:45;22.70;99.90
23471;DHT22;11908;50.806;4.424;2022-08-04T02:00:13;22.60;99.90
23471;DHT22;11908;50.806;4.424;2022-08-04T02:02:39;22.60;99.90
23471;DHT22;11908;50.806;4.424;2022-08-04T02:05:08;22.60;99.90
23471;DHT22;11908;50.806;4.424;2022-08-04T02:15:51;22.50;99.90
23471;DHT22;11908;50.806;4.424;2022-08-04T02:21:04;22.40;99.90
23471;DHT22;11908;50.806;4.424;2022-08-04T02:23:40;22.40;99.90
23471;DHT22;11908;50.806;4.424;2022-08-04T02:26:18;22.20;99.90
23471;DHT22;11908;50.806;4.424;2022-08-04T02:28:53;22.20;99.90
23471;DHT22;11908;50.806;4.424;2022-08-04T02:31:30;22.20;99.90
23471;DHT22;11908;50.806;4.424;2022-08-04T02:34:06;22.10;99.90
23471;DHT22;11908;50.806;4.424;2022-08-04T02:36:38;22.20;99.90
23471;DHT22;11908;50.806;4.424;2022-08-04T02:39:06;22.20;99.90
23471;DHT22;11908;50.806;4.424;2022-08-04T02:41:33;22.20;99.90
23471;DHT22;11908;50.806;4.424;2022-08-04T02:44:04;22.10;99.90
23471;DHT22;11908;50.806;4.424;2022-08-04T02:46:31;22.10;99.90
23471;DHT22;11908;50.806;4.424;2022-08-04T02:48:57;22.10;99.90
23471;DHT22;11908;50.806;4.424;2022-08-04T02:51:34;22.00;99.90
23471;DHT22;11908;50.806;4.424;2022-08-04T02:54:02;22.00;99.90
23471;DHT22;11908;50.806;4.424;2022-08-04T02:56:30;22.10;99.90
23471;DHT22;11908;50.806;4.424;2022-08-04T02:59:02;22.00;99.90
23471;DHT22;11908;50.806;4.424;2022-08-04T03:01:29;22.00;99.90
23471;DHT22;11908;50.806;4.424;2022-08-04T03:06:57;22.00;99.90
23471;DHT22;11908;50.806;4.424;2022-08-04T03:23:23;21.90;99.90
23471;DHT22;11908;50.806;4.424;2022-08-04T03:32:36;21.80;99.90
23471;DHT22;11908;50.806;4.424;2022-08-04T03:43:13;21.80;99.90
23471;DHT22;11908;50.806;4.424;2022-08-04T03:52:01;21.80;99.90
23471;DHT22;11908;50.806;4.424;2022-08-04T04:00:14;21.90;99.90
23471;DHT22;11908;50.806;4.424;2022-08-04T04:14:57;21.80;99.90
23471;DHT22;11908;50.806;4.424;2022-08-04T04:17:29;21.80;99.90
23471;DHT22;11908;50.806;4.424;2022-08-04T04:22:59;21.90;99.90
23471;DHT22;11908;50.806;4.424;2022-08-04T04:30:44;21.90;99.90
23471;DHT22;11908;50.806;4.424;2022-08-04T04:33:30;21.90;99.90
23471;DHT22;11908;50.806;4.424;2022-08-04T04:36:25;22.00;99.90
23471;DHT22;11908;50.806;4.424;2022-08-04T04:47:23;22.30;99.90
23471;DHT22;11908;50.806;4.424;2022-08-04T04:55:44;22.60;99.90
23471;DHT22;11908;50.806;4.424;2022-08-04T04:58:16;22.60;99.90
23471;DHT22;11908;50.806;4.424;2022-08-04T05:03:48;23.00;99.90
23471;DHT22;11908;50.806;4.424;2022-08-04T05:12:18;23.20;99.90
23471;DHT22;11908;50.806;4.424;2022-08-04T05:14:49;23.70;99.90
23471;DHT22;11908;50.806;4.424;2022-08-04T05:17:29;24.30;99.90
23471;DHT22;11908;50.806;4.424;2022-08-04T05:20:21;24.80;99.90
23471;DHT22;11908;50.806;4.424;2022-08-04T05:25:28;25.10;99.90
23471;DHT22;11908;50.806;4.424;2022-08-04T05:28:04;25.00;99.90
23471;DHT22;11908;50.806;4.424;2022-08-04T05:30:38;24.90;99.90
23471;DHT22;11908;50.806;4.424;2022-08-04T05:33:14;24.90;99.90
23471;DHT22;11908;50.806;4.424;2022-08-04T05:35:43;25.10;99.90
23471;DHT22;11908;50.806;4.424;2022-08-04T05:38:11;25.30;99.90
23471;DHT22;11908;50.806;4.424;2022-08-04T05:40:38;25.40;99.90
23471;DHT22;11908;50.806;4.424;2022-08-04T05:43:05;25.80;99.90
23471;DHT22;11908;50.806;4.424;2022-08-04T05:45:33;26.20;99.90
23471;DHT22;11908;50.806;4.424;2022-08-04T05:48:00;26.50;99.90
23471;DHT22;11908;50.806;4.424;2022-08-04T05:50:26;26.50;99.90
23471;DHT22;11908;50.806;4.424;2022-08-04T05:52:53;26.60;99.90
23471;DHT22;11908;50.806;4.424;2022-08-04T05:55:20;27.10;99.90
23471;DHT22;11908;50.806;4.424;2022-08-04T05:57:47;28.10;99.90
23471;DHT22;11908;50.806;4.424;2022-08-04T06:00:15;28.80;99.90
23471;DHT22;11908;50.806;4.424;2022-08-04T06:02:44;29.20;99.90
23471;DHT22;11908;50.806;4.424;2022-08-04T06:05:13;29.30;99.90
23471;DHT22;11908;50.806;4.424;2022-08-04T06:07:40;29.40;99.90
23471;DHT22;11908;50.806;4.424;2022-08-04T06:10:06;29.20;99.90
23471;DHT22;11908;50.806;4.424;2022-08-04T06:12:44;29.30;99.90
23471;DHT22;11908;50.806;4.424;2022-08-04T06:15:11;29.20;99.90
23471;DHT22;11908;50.806;4.424;2022-08-04T06:17:50;29.30;99.90
23471;DHT22;11908;50.806;4.424;2022-08-04T06:20:18;28.90;99.90
23471;DHT22;11908;50.806;4.424;2022-08-04T06:22:48;28.90;99.90
23471;DHT22;11908;50.806;4.424;2022-08-04T06:25:18;28.70;99.90
23471;DHT22;11908;50.806;4.424;2022-08-04T06:27:45;28.70;99.90
23471;DHT22;11908;50.806;4.424;2022-08-04T06:30:13;28.50;99.90
23471;DHT22;11908;50.806;4.424;2022-08-04T06:32:43;28.50;99.90
23471;DHT22;11908;50.806;4.424;2022-08-04T06:35:15;28.60;99.90
23471;DHT22;11908;50.806;4.424;2022-08-04T06:37:45;28.70;99.90
23471;DHT22;11908;50.806;4.424;2022-08-04T06:40:16;28.70;99.90
23471;DHT22;11908;50.806;4.424;2022-08-04T06:42:42;28.50;99.90
23471;DHT22;11908;50.806;4.424;2022-08-04T06:45:09;28.40;99.90
23471;DHT22;11908;50.806;4.424;2022-08-04T06:47:37;28.50;99.90
23471;DHT22;11908;50.806;4.424;2022-08-04T06:50:04;28.50;99.90
23471;DHT22;11908;50.806;4.424;2022-08-04T06:52:31;28.50;99.90
23471;DHT22;11908;50.806;4.424;2022-08-04T06:54:56;28.70;99.90
23471;DHT22;11908;50.806;4.424;2022-08-04T06:57:28;28.80;99.90
23471;DHT22;11908;50.806;4.424;2022-08-04T07:00:08;28.60;99.90
23471;DHT22;11908;50.806;4.424;2022-08-04T07:02:49;28.60;99.90
23471;DHT22;11908;50.806;4.424;2022-08-04T07:05:16;28.90;99.90
23471;DHT22;11908;50.806;4.424;2022-08-04T07:07:43;29.40;99.90
23471;DHT22;11908;50.806;4.424;2022-08-04T07:10:09;29.60;99.90
23471;DHT22;11908;50.806;4.424;2022-08-04T07:12:38;29.80;99.90
23471;DHT22;11908;50.806;4.424;2022-08-04T07:15:06;29.90;99.90
23471;DHT22;11908;50.806;4.424;2022-08-04T07:17:34;30.20;99.90
23471;DHT22;11908;50.806;4.424;2022-08-04T07:20:00;30.30;99.90
23471;DHT22;11908;50.806;4.424;2022-08-04T07:22:27;30.40;99.90
23471;DHT22;11908;50.806;4.424;2022-08-04T07:24:55;30.50;99.90
23471;DHT22;11908;50.806;4.424;2022-08-04T07:27:21;30.70;99.90
23471;DHT22;11908;50.806;4.424;2022-08-04T07:29:48;30.30;99.90
23471;DHT22;11908;50.806;4.424;2022-08-04T07:32:15;30.40;99.90
23471;DHT22;11908;50.806;4.424;2022-08-04T07:34:42;30.00;99.90
23471;DHT22;11908;50.806;4.424;2022-08-04T07:37:08;30.00;99.90
23471;DHT22;11908;50.806;4.424;2022-08-04T07:39:34;29.70;99.90
23471;DHT22;11908;50.806;4.424;2022-08-04T07:42:02;29.30;99.90
23471;DHT22;11908;50.806;4.424;2022-08-04T07:44:32;29.40;99.90
23471;DHT22;11908;50.806;4.424;2022-08-04T07:46:59;29.50;99.90
23471;DHT22;11908;50.806;4.424;2022-08-04T07:49:25;29.20;99.90
23471;DHT22;11908;50.806;4.424;2022-08-04T07:51:52;29.20;99.90
23471;DHT22;11908;50.806;4.424;2022-08-04T07:54:18;28.90;99.90
23471;DHT22;11908;50.806;4.424;2022-08-04T07:56:45;28.80;99.90
23471;DHT22;11908;50.806;4.424;2022-08-04T07:59:14;28.50;99.90
23471;DHT22;11908;50.806;4.424;2022-08-04T08:01:40;28.30;99.90
23471;DHT22;11908;50.806;4.424;2022-08-04T08:04:07;28.60;99.90
23471;DHT22;11908;50.806;4.424;2022-08-04T08:06:35;28.90;99.90
23471;DHT22;11908;50.806;4.424;2022-08-04T08:09:07;28.90;99.90
23471;DHT22;11908;50.806;4.424;2022-08-04T08:11:33;28.90;99.90
23471;DHT22;11908;50.806;4.424;2022-08-04T08:14:00;28.50;99.90
23471;DHT22;11908;50.806;4.424;2022-08-04T08:16:26;28.40;99.90
23471;DHT22;11908;50.806;4.424;2022-08-04T08:18:53;28.50;99.90
23471;DHT22;11908;50.806;4.424;2022-08-04T08:21:20;28.10;99.90
23471;DHT22;11908;50.806;4.424;2022-08-04T08:23:46;27.90;99.90
23471;DHT22;11908;50.806;4.424;2022-08-04T08:26:12;28.20;99.90
23471;DHT22;11908;50.806;4.424;2022-08-04T08:28:38;27.90;99.90
23471;DHT22;11908;50.806;4.424;2022-08-04T08:31:04;28.00;99.90
23471;DHT22;11908;50.806;4.424;2022-08-04T08:33:30;28.10;99.90
23471;DHT22;11908;50.806;4.424;2022-08-04T08:36:08;28.20;99.90
23471;DHT22;11908;50.806;4.424;2022-08-04T08:44:03;28.30;99.90
23471;DHT22;11908;50.806;4.424;2022-08-04T08:52:48;27.90;99.90
23471;DHT22;11908;50.806;4.424;2022-08-04T08:55:46;27.60;99.90
23471;DHT22;11908;50.806;4.424;2022-08-04T08:58:34;26.90;99.90
23471;DHT22;11908;50.806;4.424;2022-08-04T09:10:16;26.40;99.90
23471;DHT22;11908;50.806;4.424;2022-08-04T09:12:50;26.20;99.90
23471;DHT22;11908;50.806;4.424;2022-08-04T09:15:33;26.20;99.90
23471;DHT22;11908;50.806;4.424;2022-08-04T09:20:59;26.10;99.90
23471;DHT22;11908;50.806;4.424;2022-08-04T09:26:45;25.90;99.90
23471;DHT22;11908;50.806;4.424;2022-08-04T09:29:26;25.90;99.90
23471;DHT22;11908;50.806;4.424;2022-08-04T09:34:50;25.90;99.90
23471;DHT22;11908;50.806;4.424;2022-08-04T09:37:35;26.10;99.90
23471;DHT22;11908;50.806;4.424;2022-08-04T09:40:14;26.30;99.90
23471;DHT22;11908;50.806;4.424;2022-08-04T09:42:57;26.50;99.90
23471;DHT22;11908;50.806;4.424;2022-08-04T09:45:37;26.80;99.90
23471;DHT22;11908;50.806;4.424;2022-08-04T09:48:16;27.10;99.90
23471;DHT22;11908;50.806;4.424;2022-08-04T09:50:44;27.20;99.90
23471;DHT22;11908;50.806;4.424;2022-08-04T09:53:20;27.30;99.90
23471;DHT22;11908;50.806;4.424;2022-08-04T09:56:19;27.50;99.90
23471;DHT22;11908;50.806;4.424;2022-08-04T09:59:23;27.40;99.90
23471;DHT22;11908;50.806;4.424;2022-08-04T10:01:57;27.50;99.90
23471;DHT22;11908;50.806;4.424;2022-08-04T10:04:26;27.80;99.90
23471;DHT22;11908;50.806;4.424;2022-08-04T10:07:14;28.50;99.90
23471;DHT22;11908;50.806;4.424;2022-08-04T10:09:59;29.50;99.90
23471;DHT22;11908;50.806;4.424;2022-08-04T10:16:23;30.30;99.90
23471;DHT22;11908;50.806;4.424;2022-08-04T10:18:49;30.30;99.90
23471;DHT22;11908;50.806;4.424;2022-08-04T10:21:27;30.80;99.90
23471;DHT22;11908;50.806;4.424;2022-08-04T10:26:49;32.30;99.90
23471;DHT22;11908;50.806;4.424;2022-08-04T10:29:19;32.00;99.90
23471;DHT22;11908;50.806;4.424;2022-08-04T10:32:05;32.00;99.90
23471;DHT22;11908;50.806;4.424;2022-08-04T10:34:55;32.00;99.90
23471;DHT22;11908;50.806;4.424;2022-08-04T10:37:31;31.70;99.90
23471;DHT22;11908;50.806;4.424;2022-08-04T10:40:11;31.60;99.90
23471;DHT22;11908;50.806;4.424;2022-08-04T10:43:10;31.10;99.90
23471;DHT22;11908;50.806;4.424;2022-08-04T10:45:46;30.80;99.90
23471;DHT22;11908;50.806;4.424;2022-08-04T10:51:08;30.90;99.90
23471;DHT22;11908;50.806;4.424;2022-08-04T10:53:37;31.20;99.90
23471;DHT22;11908;50.806;4.424;2022-08-04T10:56:11;31.50;99.90
23471;DHT22;11908;50.806;4.424;2022-08-04T10:59:06;31.70;99.90
23471;DHT22;11908;50.806;4.424;2022-08-04T11:01:37;31.80;99.90
23471;DHT22;11908;50.806;4.424;2022-08-04T11:04:09;32.00;99.90
23471;DHT22;11908;50.806;4.424;2022-08-04T11:06:37;32.20;99.90
23471;DHT22;11908;50.806;4.424;2022-08-04T11:09:04;31.90;99.90
23471;DHT22;11908;50.806;4.424;2022-08-04T11:11:46;31.90;99.90
23471;DHT22;11908;50.806;4.424;2022-08-04T11:14:18;32.00;99.90
23471;DHT22;11908;50.806;4.424;2022-08-04T11:17:00;32.20;99.90
23471;DHT22;11908;50.806;4.424;2022-08-04T11:22:09;32.30;99.90
23471;DHT22;11908;50.806;4.424;2022-08-04T11:27:04;32.60;99.90
23471;DHT22;11908;50.806;4.424;2022-08-04T11:32:06;33.00;99.90
23471;DHT22;11908;50.806;4.424;2022-08-04T11:34:33;33.00;99.90
23471;DHT22;11908;50.806;4.424;2022-08-04T11:37:14;32.50;99.90
23471;DHT22;11908;50.806;4.424;2022-08-04T11:39:45;32.30;99.90
23471;DHT22;11908;50.806;4.424;2022-08-04T11:42:35;32.30;99.90
23471;DHT22;11908;50.806;4.424;2022-08-04T11:45:05;32.00;99.90
23471;DHT22;11908;50.806;4.424;2022-08-04T11:50:08;31.10;99.90
23471;DHT22;11908;50.806;4.424;2022-08-04T11:52:39;31.20;99.90
23471;DHT22;11908;50.806;4.424;2022-08-04T11:55:12;31.30;99.90
23471;DHT22;11908;50.806;4.424;2022-08-04T11:57:39;31.60;99.90
23471;DHT22;11908;50.806;4.424;2022-08-04T12:00:11;32.00;99.90
23471;DHT22;11908;50.806;4.424;2022-08-04T12:03:06;32.20;99.90
23471;DHT22;11908;50.806;4.424;2022-08-04T12:08:50;32.10;99.90
23471;DHT22;11908;50.806;4.424;2022-08-04T12:17:33;32.00;99.90
23471;DHT22;11908;50.806;4.424;2022-08-04T12:20:04;32.00;99.90
23471;DHT22;11908;50.806;4.424;2022-08-04T12:22:36;32.10;99.90
23471;DHT22;11908;50.806;4.424;2022-08-04T12:25:08;32.30;99.90
23471;DHT22;11908;50.806;4.424;2022-08-04T12:27:45;32.30;99.90
23471;DHT22;11908;50.806;4.424;2022-08-04T12:30:13;32.50;99.90
23471;DHT22;11908;50.806;4.424;2022-08-04T12:32:56;32.60;99.90
23471;DHT22;11908;50.806;4.424;2022-08-04T12:35:34;33.00;99.90
23471;DHT22;11908;50.806;4.424;2022-08-04T12:38:10;33.10;99.90
23471;DHT22;11908;50.806;4.424;2022-08-04T12:40:49;33.00;99.90
23471;DHT22;11908;50.806;4.424;2022-08-04T12:43:40;33.10;99.90
23471;DHT22;11908;50.806;4.424;2022-08-04T12:46:06;33.30;99.90
23471;DHT22;11908;50.806;4.424;2022-08-04T12:48:36;33.50;99.90
23471;DHT22;11908;50.806;4.424;2022-08-04T12:51:02;33.40;99.90
23471;DHT22;11908;50.806;4.424;2022-08-04T12:53:40;33.10;99.90
23471;DHT22;11908;50.806;4.424;2022-08-04T12:56:08;32.80;99.90
23471;DHT22;11908;50.806;4.424;2022-08-04T12:58:39;33.00;99.90
23471;DHT22;11908;50.806;4.424;2022-08-04T13:01:24;32.70;99.90
23471;DHT22;11908;50.806;4.424;2022-08-04T13:04:01;32.60;99.90
23471;DHT22;11908;50.806;4.424;2022-08-04T13:06:31;32.40;99.90
23471;DHT22;11908;50.806;4.424;2022-08-04T13:09:05;32.30;99.90
23471;DHT22;11908;50.806;4.424;2022-08-04T13:11:36;32.50;99.90
23471;DHT22;11908;50.806;4.424;2022-08-04T13:14:05;32.70;99.90
23471;DHT22;11908;50.806;4.424;2022-08-04T13:16:31;32.60;99.90
23471;DHT22;11908;50.806;4.424;2022-08-04T13:18:58;32.80;99.90
23471;DHT22;11908;50.806;4.424;2022-08-04T13:21:26;32.80;99.90
23471;DHT22;11908;50.806;4.424;2022-08-04T13:24:01;32.80;99.90
23471;DHT22;11908;50.806;4.424;2022-08-04T13:26:29;33.10;99.90
23471;DHT22;11908;50.806;4.424;2022-08-04T13:29:03;33.40;99.90
23471;DHT22;11908;50.806;4.424;2022-08-04T13:31:32;33.40;99.90
23471;DHT22;11908;50.806;4.424;2022-08-04T13:34:07;33.10;99.90
23471;DHT22;11908;50.806;4.424;2022-08-04T13:36:34;32.80;99.90
23471;DHT22;11908;50.806;4.424;2022-08-04T13:39:14;32.40;99.90
23471;DHT22;11908;50.806;4.424;2022-08-04T13:41:44;32.20;99.90
23471;DHT22;11908;50.806;4.424;2022-08-04T13:44:11;32.00;99.90
23471;DHT22;11908;50.806;4.424;2022-08-04T13:46:49;32.00;99.90
23471;DHT22;11908;50.806;4.424;2022-08-04T13:49:16;32.40;99.90
23471;DHT22;11908;50.806;4.424;2022-08-04T13:51:58;32.70;99.90
23471;DHT22;11908;50.806;4.424;2022-08-04T13:54:43;32.70;99.90
23471;DHT22;11908;50.806;4.424;2022-08-04T13:57:13;32.40;99.90
23471;DHT22;11908;50.806;4.424;2022-08-04T13:59:44;32.40;99.90
23471;DHT22;11908;50.806;4.424;2022-08-04T14:05:19;32.70;99.90
23471;DHT22;11908;50.806;4.424;2022-08-04T14:07:50;32.40;99.90
23471;DHT22;11908;50.806;4.424;2022-08-04T14:10:18;32.30;99.90
23471;DHT22;11908;50.806;4.424;2022-08-04T14:12:46;32.30;99.90
23471;DHT22;11908;50.806;4.424;2022-08-04T14:15:40;32.40;99.90
23471;DHT22;11908;50.806;4.424;2022-08-04T14:18:32;32.20;99.90
23471;DHT22;11908;50.806;4.424;2022-08-04T14:26:25;32.30;99.90
23471;DHT22;11908;50.806;4.424;2022-08-04T14:28:53;32.40;99.90
23471;DHT22;11908;50.806;4.424;2022-08-04T14:31:24;32.40;99.90
23471;DHT22;11908;50.806;4.424;2022-08-04T14:33:51;32.00;99.90
23471;DHT22;11908;50.806;4.424;2022-08-04T14:36:18;31.70;99.90
23471;DHT22;11908;50.806;4.424;2022-08-04T14:39:03;31.80;99.90
23471;DHT22;11908;50.806;4.424;2022-08-04T14:41:48;31.70;99.90
23471;DHT22;11908;50.806;4.424;2022-08-04T14:44:14;31.80;99.90
23471;DHT22;11908;50.806;4.424;2022-08-04T14:49:19;31.80;99.90
23471;DHT22;11908;50.806;4.424;2022-08-04T14:51:54;31.80;99.90
23471;DHT22;11908;50.806;4.424;2022-08-04T14:54:29;31.70;99.90
23471;DHT22;11908;50.806;4.424;2022-08-04T14:57:01;31.90;99.90
23471;DHT22;11908;50.806;4.424;2022-08-04T15:02:05;31.60;99.90
23471;DHT22;11908;50.806;4.424;2022-08-04T15:04:31;31.50;99.90
23471;DHT22;11908;50.806;4.424;2022-08-04T15:06:57;31.20;99.90
23471;DHT22;11908;50.806;4.424;2022-08-04T15:09:23;31.10;99.90
23471;DHT22;11908;50.806;4.424;2022-08-04T15:11:49;31.20;99.90
23471;DHT22;11908;50.806;4.424;2022-08-04T15:14:15;31.20;99.90
23471;DHT22;11908;50.806;4.424;2022-08-04T15:16:41;31.10;99.90
23471;DHT22;11908;50.806;4.424;2022-08-04T15:19:07;30.90;99.90
23471;DHT22;11908;50.806;4.424;2022-08-04T15:21:33;31.00;99.90
23471;DHT22;11908;50.806;4.424;2022-08-04T15:24:00;31.00;99.90
23471;DHT22;11908;50.806;4.424;2022-08-04T15:26:39;31.00;99.90
23471;DHT22;11908;50.806;4.424;2022-08-04T15:29:20;31.00;99.90
23471;DHT22;11908;50.806;4.424;2022-08-04T15:31:48;30.80;99.90
23471;DHT22;11908;50.806;4.424;2022-08-04T15:34:15;30.80;99.90
23471;DHT22;11908;50.806;4.424;2022-08-04T15:39:42;30.60;99.90
23471;DHT22;11908;50.806;4.424;2022-08-04T15:42:12;30.80;99.90
23471;DHT22;11908;50.806;4.424;2022-08-04T15:47:17;30.80;99.90
23471;DHT22;11908;50.806;4.424;2022-08-04T15:49:44;30.80;99.90
23471;DHT22;11908;50.806;4.424;2022-08-04T15:52:12;30.80;99.90
23471;DHT22;11908;50.806;4.424;2022-08-04T15:54:40;30.80;99.90
23471;DHT22;11908;50.806;4.424;2022-08-04T15:57:06;30.80;99.90
23471;DHT22;11908;50.806;4.424;2022-08-04T16:02:39;30.90;99.90
23471;DHT22;11908;50.806;4.424;2022-08-04T16:08:11;31.00;99.90
23471;DHT22;11908;50.806;4.424;2022-08-04T16:10:40;30.90;99.90
23471;DHT22;11908;50.806;4.424;2022-08-04T16:13:17;30.90;99.90
23471;DHT22;11908;50.806;4.424;2022-08-04T16:15:48;30.90;99.90
23471;DHT22;11908;50.806;4.424;2022-08-04T16:21:03;31.10;99.90
23471;DHT22;11908;50.806;4.424;2022-08-04T16:29:03;31.10;99.90
23471;DHT22;11908;50.806;4.424;2022-08-04T16:34:33;31.00;99.90
23471;DHT22;11908;50.806;4.424;2022-08-04T16:37:01;31.00;99.90
23471;DHT22;11908;50.806;4.424;2022-08-04T16:39:28;31.00;99.90
23471;DHT22;11908;50.806;4.424;2022-08-04T16:41:54;30.60;99.90
23471;DHT22;11908;50.806;4.424;2022-08-04T16:44:34;30.40;99.90
23471;DHT22;11908;50.806;4.424;2022-08-04T16:47:06;30.00;99.90
23471;DHT22;11908;50.806;4.424;2022-08-04T16:49:33;29.70;99.90
23471;DHT22;11908;50.806;4.424;2022-08-04T16:52:07;29.50;99.90
23471;DHT22;11908;50.806;4.424;2022-08-04T16:54:33;29.30;99.90
23471;DHT22;11908;50.806;4.424;2022-08-04T16:56:59;29.10;99.90
23471;DHT22;11908;50.806;4.424;2022-08-04T16:59:26;28.90;99.90
23471;DHT22;11908;50.806;4.424;2022-08-04T17:01:53;28.70;99.90
23471;DHT22;11908;50.806;4.424;2022-08-04T17:04:30;28.70;99.90
23471;DHT22;11908;50.806;4.424;2022-08-04T17:07:04;28.70;99.90
23471;DHT22;11908;50.806;4.424;2022-08-04T17:09:30;28.50;99.90
23471;DHT22;11908;50.806;4.424;2022-08-04T17:11:57;28.40;99.90
23471;DHT22;11908;50.806;4.424;2022-08-04T17:14:27;28.50;99.90
23471;DHT22;11908;50.806;4.424;2022-08-04T17:16:58;28.40;99.90
23471;DHT22;11908;50.806;4.424;2022-08-04T17:19:25;28.50;99.90
23471;DHT22;11908;50.806;4.424;2022-08-04T17:21:51;28.50;99.90
23471;DHT22;11908;50.806;4.424;2022-08-04T17:24:17;28.50;99.90
23471;DHT22;11908;50.806;4.424;2022-08-04T17:26:45;28.30;99.90
23471;DHT22;11908;50.806;4.424;2022-08-04T17:29:11;28.00;99.90
23471;DHT22;11908;50.806;4.424;2022-08-04T17:31:37;27.90;99.90
23471;DHT22;11908;50.806;4.424;2022-08-04T17:34:14;27.80;99.90
23471;DHT22;11908;50.806;4.424;2022-08-04T17:36:40;27.70;99.90
23471;DHT22;11908;50.806;4.424;2022-08-04T17:39:14;27.60;99.90
23471;DHT22;11908;50.806;4.424;2022-08-04T17:41:41;27.60;99.90
23471;DHT22;11908;50.806;4.424;2022-08-04T17:44:07;27.60;99.90
23471;DHT22;11908;50.806;4.424;2022-08-04T17:54:08;27.40;99.90
23471;DHT22;11908;50.806;4.424;2022-08-04T18:01:54;27.20;99.90
23471;DHT22;11908;50.806;4.424;2022-08-04T18:07:07;27.00;99.90
23471;DHT22;11908;50.806;4.424;2022-08-04T18:09:47;26.90;99.90
23471;DHT22;11908;50.806;4.424;2022-08-04T18:12:31;26.50;99.90
23471;DHT22;11908;50.806;4.424;2022-08-04T18:15:02;26.30;99.90
23471;DHT22;11908;50.806;4.424;2022-08-04T18:17:41;26.20;99.90
23471;DHT22;11908;50.806;4.424;2022-08-04T18:20:16;26.10;99.90
23471;DHT22;11908;50.806;4.424;2022-08-04T18:22:44;26.10;99.90
23471;DHT22;11908;50.806;4.424;2022-08-04T18:25:12;26.20;99.90
23471;DHT22;11908;50.806;4.424;2022-08-04T18:27:48;26.10;99.90
23471;DHT22;11908;50.806;4.424;2022-08-04T18:30:14;26.00;99.90
23471;DHT22;11908;50.806;4.424;2022-08-04T18:32:40;26.00;99.90
23471;DHT22;11908;50.806;4.424;2022-08-04T18:35:06;26.00;99.90
23471;DHT22;11908;50.806;4.424;2022-08-04T18:37:36;26.10;99.90
23471;DHT22;11908;50.806;4.424;2022-08-04T18:40:02;26.10;99.90
23471;DHT22;11908;50.806;4.424;2022-08-04T18:42:28;26.00;99.90
23471;DHT22;11908;50.806;4.424;2022-08-04T18:44:54;25.80;99.90
23471;DHT22;11908;50.806;4.424;2022-08-04T18:47:22;25.70;99.90
23471;DHT22;11908;50.806;4.424;2022-08-04T18:49:55;25.50;99.90
23471;DHT22;11908;50.806;4.424;2022-08-04T18:52:21;25.40;99.90
23471;DHT22;11908;50.806;4.424;2022-08-04T18:54:47;25.30;99.90
23471;DHT22;11908;50.806;4.424;2022-08-04T18:57:20;25.20;99.90
23471;DHT22;11908;50.806;4.424;2022-08-04T18:59:46;25.10;99.90
23471;DHT22;11908;50.806;4.424;2022-08-04T19:02:12;25.00;99.90
23471;DHT22;11908;50.806;4.424;2022-08-04T19:04:39;24.90;99.90
23471;DHT22;11908;50.806;4.424;2022-08-04T19:07:05;25.00;99.90
23471;DHT22;11908;50.806;4.424;2022-08-04T19:09:31;25.00;99.90
23471;DHT22;11908;50.806;4.424;2022-08-04T19:11:56;25.00;99.90
23471;DHT22;11908;50.806;4.424;2022-08-04T19:14:22;24.80;99.90
23471;DHT22;11908;50.806;4.424;2022-08-04T19:16:48;24.70;99.90
23471;DHT22;11908;50.806;4.424;2022-08-04T19:19:14;24.50;99.90
23471;DHT22;11908;50.806;4.424;2022-08-04T19:21:41;24.20;99.90
23471;DHT22;11908;50.806;4.424;2022-08-04T19:24:07;24.20;99.90
23471;DHT22;11908;50.806;4.424;2022-08-04T19:26:33;24.10;99.90
23471;DHT22;11908;50.806;4.424;2022-08-04T19:29:00;23.90;99.90
23471;DHT22;11908;50.806;4.424;2022-08-04T19:31:25;23.70;99.90
23471;DHT22;11908;50.806;4.424;2022-08-04T19:33:51;23.60;99.90
23471;DHT22;11908;50.806;4.424;2022-08-04T19:36:17;23.40;99.90
23471;DHT22;11908;50.806;4.424;2022-08-04T19:38:43;23.20;99.90
23471;DHT22;11908;50.806;4.424;2022-08-04T19:41:09;23.10;99.90
23471;DHT22;11908;50.806;4.424;2022-08-04T19:43:34;23.00;99.90
23471;DHT22;11908;50.806;4.424;2022-08-04T19:46:00;22.90;99.90
23471;DHT22;11908;50.806;4.424;2022-08-04T19:48:26;22.70;99.90
23471;DHT22;11908;50.806;4.424;2022-08-04T19:50:53;22.40;99.90
23471;DHT22;11908;50.806;4.424;2022-08-04T19:53:18;22.10;99.90
23471;DHT22;11908;50.806;4.424;2022-08-04T19:55:44;22.10;99.90
23471;DHT22;11908;50.806;4.424;2022-08-04T19:58:10;22.00;99.90